createdAt,value
2016-08-06T00:00:06.321Z,16.86
2016-08-06T00:01:07.079Z,16.83
2016-08-06T00:02:06.366Z,16.96
2016-08-06T00:03:06.408Z,16.79
2016-08-06T00:04:07.141Z,16.81
2016-08-06T00:05:06.444Z,16.9
2016-08-06T00:06:07.197Z,16.83
2016-08-06T00:07:06.493Z,16.87
2016-08-06T00:08:06.518Z,16.81
2016-08-06T00:09:07.252Z,16.89
2016-08-06T00:10:06.564Z,16.91
2016-08-06T00:11:06.584Z,16.78
2016-08-06T00:12:06.774Z,16.83
2016-08-06T00:13:06.680Z,16.78
2016-08-06T00:14:07.522Z,16.79
2016-08-06T00:16:06.803Z,16.76
2016-08-06T00:17:06.740Z,16.9
2016-08-06T00:18:06.828Z,16.76
2016-08-06T00:19:06.777Z,16.72
2016-08-06T00:20:06.906Z,16.72
2016-08-06T00:21:07.542Z,16.72
2016-08-06T00:22:06.846Z,16.66
2016-08-06T00:23:06.930Z,16.72
2016-08-06T00:24:06.895Z,16.72
2016-08-06T00:25:06.920Z,16.74
2016-08-06T00:26:06.966Z,16.76
2016-08-06T00:27:06.979Z,16.64
2016-08-06T00:28:07.037Z,16.71
2016-08-06T00:29:07.077Z,16.71
2016-08-06T00:31:07.064Z,16.78
2016-08-06T00:32:07.086Z,16.79
2016-08-06T00:33:07.913Z,16.79
2016-08-06T00:34:07.187Z,16.79
2016-08-06T00:35:07.875Z,16.79
2016-08-06T00:36:07.181Z,16.75
2016-08-06T00:37:07.920Z,16.83
2016-08-06T00:38:07.950Z,16.78
2016-08-06T00:39:07.305Z,16.87
2016-08-06T00:40:07.284Z,16.76
2016-08-06T00:41:07.402Z,16.78
2016-08-06T00:42:07.341Z,16.78
2016-08-06T00:43:08.110Z,16.76
2016-08-06T00:44:07.376Z,16.86
2016-08-06T00:45:07.399Z,16.84
2016-08-06T00:46:07.420Z,16.83
2016-08-06T00:47:08.156Z,16.81
2016-08-06T00:48:07.470Z,16.84
2016-08-06T00:49:07.597Z,16.76
2016-08-06T00:50:07.517Z,16.86
2016-08-06T00:51:08.250Z,16.89
2016-08-06T00:52:07.566Z,16.91
2016-08-06T00:53:08.375Z,16.97
2016-08-06T00:54:07.615Z,16.9
2016-08-06T00:55:07.645Z,16.96
2016-08-06T00:56:08.391Z,16.97
2016-08-06T00:57:07.683Z,16.93
2016-08-06T00:58:07.707Z,17.05
2016-08-06T00:59:07.733Z,16.97
2016-08-06T01:00:08.469Z,16.96
2016-08-06T01:01:07.793Z,16.9
2016-08-06T01:02:07.811Z,17.01
2016-08-06T01:03:07.878Z,16.96
2016-08-06T01:04:07.851Z,17.02
2016-08-06T01:05:07.872Z,16.94
2016-08-06T01:06:07.910Z,17.01
2016-08-06T01:07:07.924Z,16.94
2016-08-06T01:08:08.660Z,17.05
2016-08-06T01:09:08.694Z,17.14
2016-08-06T01:10:08.008Z,17.02
2016-08-06T01:11:08.017Z,17.06
2016-08-06T01:12:08.765Z,17.06
2016-08-06T01:13:08.779Z,17.02
2016-08-06T01:14:08.091Z,17.01
2016-08-06T01:15:08.119Z,17.02
2016-08-06T01:16:08.138Z,17.02
2016-08-06T01:17:08.163Z,16.97
2016-08-06T01:18:08.187Z,17.08
2016-08-06T01:19:08.211Z,17.02
2016-08-06T01:20:08.232Z,17.11
2016-08-06T01:21:08.277Z,16.99
2016-08-06T01:22:08.284Z,17.02
2016-08-06T01:23:09.070Z,17.04
2016-08-06T01:24:11.136Z,17.01
2016-08-06T01:25:08.352Z,17.02
2016-08-06T01:26:08.379Z,16.96
2016-08-06T01:27:08.436Z,16.97
2016-08-06T01:28:08.592Z,17.04
2016-08-06T01:29:08.449Z,16.96
2016-08-06T01:30:08.475Z,16.93
2016-08-06T01:31:08.498Z,17.04
2016-08-06T01:32:09.235Z,16.96
2016-08-06T01:33:09.424Z,16.96
2016-08-06T01:34:08.567Z,16.93
2016-08-06T01:35:08.763Z,16.9
2016-08-06T01:36:08.619Z,16.89
2016-08-06T01:37:08.643Z,16.86
2016-08-06T01:38:08.661Z,16.94
2016-08-06T01:39:08.685Z,16.94
2016-08-06T01:40:08.711Z,16.86
2016-08-06T01:41:08.731Z,16.94
2016-08-06T01:42:08.757Z,16.97
2016-08-06T01:43:08.779Z,17.01
2016-08-06T01:44:09.530Z,16.96
2016-08-06T01:45:08.842Z,16.93
2016-08-06T01:46:09.590Z,16.99
2016-08-06T01:47:08.937Z,16.96
2016-08-06T01:48:08.973Z,16.96
2016-08-06T01:49:08.925Z,16.94
2016-08-06T01:50:08.956Z,16.94
2016-08-06T01:51:08.985Z,16.96
2016-08-06T01:52:08.993Z,17.06
2016-08-06T01:53:09.024Z,17.09
2016-08-06T01:54:09.757Z,17.12
2016-08-06T01:55:09.066Z,17.15
2016-08-06T01:56:09.144Z,17.14
2016-08-06T01:57:09.269Z,17.22
2016-08-06T01:58:09.144Z,17.23
2016-08-06T01:59:09.990Z,17.3
2016-08-06T02:00:09.207Z,17.27
2016-08-06T02:01:09.219Z,17.24
2016-08-06T02:02:09.236Z,17.23
2016-08-06T02:03:09.309Z,17.27
2016-08-06T02:04:09.332Z,17.31
2016-08-06T02:05:09.307Z,17.29
2016-08-06T02:06:09.330Z,17.31
2016-08-06T02:07:10.065Z,17.22
2016-08-06T02:08:09.380Z,17.26
2016-08-06T02:09:09.410Z,17.31
2016-08-06T02:10:09.428Z,17.33
2016-08-06T02:11:10.166Z,17.33
2016-08-06T02:12:09.478Z,17.26
2016-08-06T02:13:09.522Z,17.29
2016-08-06T02:14:09.532Z,17.36
2016-08-06T02:15:09.545Z,17.41
2016-08-06T02:16:09.575Z,17.31
2016-08-06T02:17:09.591Z,17.34
2016-08-06T02:18:09.618Z,17.39
2016-08-06T02:19:09.656Z,17.39
2016-08-06T02:20:09.665Z,17.42
2016-08-06T02:21:09.687Z,17.39
2016-08-06T02:22:09.712Z,17.42
2016-08-06T02:23:09.739Z,17.26
2016-08-06T02:24:09.774Z,17.33
2016-08-06T02:25:09.786Z,17.36
2016-08-06T02:26:10.521Z,17.26
2016-08-06T02:27:09.834Z,17.29
2016-08-06T02:28:09.855Z,17.27
2016-08-06T02:29:09.881Z,17.36
2016-08-06T02:30:09.911Z,17.41
2016-08-06T02:31:10.644Z,17.34
2016-08-06T02:32:09.954Z,17.38
2016-08-06T02:33:09.979Z,17.36
2016-08-06T02:34:10.003Z,17.39
2016-08-06T02:35:10.030Z,17.31
2016-08-06T02:36:10.052Z,17.39
2016-08-06T02:37:10.071Z,17.38
2016-08-06T02:38:10.809Z,17.49
2016-08-06T02:39:10.135Z,17.46
2016-08-06T02:40:10.150Z,17.48
2016-08-06T02:41:10.177Z,17.41
2016-08-06T02:42:10.200Z,17.44
2016-08-06T02:43:10.218Z,17.45
2016-08-06T02:44:10.243Z,17.49
2016-08-06T02:45:10.975Z,17.52
2016-08-06T02:46:10.295Z,17.46
2016-08-06T02:47:10.440Z,17.51
2016-08-06T02:48:12.615Z,17.49
2016-08-06T02:49:11.879Z,17.48
2016-08-06T02:50:11.098Z,17.46
2016-08-06T02:51:10.457Z,17.52
2016-08-06T02:52:10.471Z,17.51
2016-08-06T02:53:11.191Z,17.46
2016-08-06T02:54:10.483Z,17.49
2016-08-06T02:55:10.518Z,17.44
2016-08-06T02:56:10.544Z,17.49
2016-08-06T02:57:10.563Z,17.49
2016-08-06T02:58:11.309Z,17.51
2016-08-06T02:59:10.605Z,17.51
2016-08-06T03:00:11.463Z,17.42
2016-08-06T03:01:10.657Z,17.46
2016-08-06T03:02:11.499Z,17.49
2016-08-06T03:03:10.707Z,17.44
2016-08-06T03:04:10.744Z,17.44
2016-08-06T03:05:10.880Z,17.49
2016-08-06T03:06:10.776Z,17.45
2016-08-06T03:07:10.798Z,17.45
2016-08-06T03:08:11.653Z,17.48
2016-08-06T03:09:10.848Z,17.51
2016-08-06T03:10:10.872Z,17.49
2016-08-06T03:11:12.430Z,17.48
2016-08-06T03:12:10.922Z,17.51
2016-08-06T03:13:10.943Z,17.45
2016-08-06T03:14:11.676Z,17.46
2016-08-06T03:15:10.994Z,17.44
2016-08-06T03:16:11.015Z,17.39
2016-08-06T03:17:11.056Z,17.42
2016-08-06T03:18:11.067Z,17.41
2016-08-06T03:19:11.098Z,17.46
2016-08-06T03:20:11.113Z,17.44
2016-08-06T03:21:11.846Z,17.42
2016-08-06T03:22:11.871Z,17.46
2016-08-06T03:23:11.182Z,17.49
2016-08-06T03:24:11.210Z,17.51
2016-08-06T03:25:11.235Z,17.49
2016-08-06T03:26:11.261Z,17.45
2016-08-06T03:27:11.300Z,17.51
2016-08-06T03:28:11.306Z,17.49
2016-08-06T03:29:12.037Z,17.52
2016-08-06T03:30:11.352Z,17.52
2016-08-06T03:31:12.085Z,17.54
2016-08-06T03:32:11.401Z,17.57
2016-08-06T03:33:11.429Z,17.51
2016-08-06T03:34:11.450Z,17.46
2016-08-06T03:35:11.473Z,17.48
2016-08-06T03:36:11.503Z,17.48
2016-08-06T03:37:11.523Z,17.52
2016-08-06T03:38:12.255Z,17.49
2016-08-06T03:39:11.572Z,17.48
2016-08-06T03:40:11.633Z,17.46
2016-08-06T03:41:11.628Z,17.49
2016-08-06T03:42:11.651Z,17.48
2016-08-06T03:43:11.668Z,17.49
2016-08-06T03:44:11.689Z,17.49
2016-08-06T03:45:12.434Z,17.49
2016-08-06T03:46:11.735Z,17.48
2016-08-06T03:47:11.763Z,17.52
2016-08-06T03:48:11.789Z,17.42
2016-08-06T03:49:11.814Z,17.52
2016-08-06T03:50:11.858Z,17.46
2016-08-06T03:51:11.880Z,17.49
2016-08-06T03:52:12.592Z,17.46
2016-08-06T03:53:11.909Z,17.51
2016-08-06T03:54:11.932Z,17.51
2016-08-06T03:55:11.956Z,17.49
2016-08-06T03:56:12.713Z,17.42
2016-08-06T03:57:12.011Z,17.31
2016-08-06T03:58:12.027Z,17.34
2016-08-06T03:59:12.763Z,17.36
2016-08-06T04:00:12.794Z,17.31
2016-08-06T04:01:12.101Z,17.36
2016-08-06T04:02:12.126Z,17.38
2016-08-06T04:03:12.198Z,17.44
2016-08-06T04:04:12.172Z,17.36
2016-08-06T04:05:12.220Z,17.41
2016-08-06T04:06:12.231Z,17.39
2016-08-06T04:07:12.245Z,17.42
2016-08-06T04:08:12.272Z,17.38
2016-08-06T04:09:12.999Z,17.38
2016-08-06T04:10:12.320Z,17.39
2016-08-06T04:11:12.349Z,17.39
2016-08-06T04:12:12.365Z,17.38
2016-08-06T04:13:13.100Z,17.36
2016-08-06T04:14:12.414Z,17.41
2016-08-06T04:15:12.438Z,17.34
2016-08-06T04:16:12.463Z,17.41
2016-08-06T04:17:12.486Z,17.36
2016-08-06T04:18:12.509Z,17.38
2016-08-06T04:19:12.548Z,17.36
2016-08-06T04:20:12.559Z,17.3
2016-08-06T04:21:12.586Z,17.33
2016-08-06T04:22:12.607Z,17.42
2016-08-06T04:23:12.632Z,17.39
2016-08-06T04:24:13.360Z,17.36
2016-08-06T04:25:12.677Z,17.33
2016-08-06T04:26:13.416Z,17.36
2016-08-06T04:27:12.727Z,17.44
2016-08-06T04:28:12.750Z,17.49
2016-08-06T04:29:13.486Z,17.39
2016-08-06T04:30:13.507Z,17.48
2016-08-06T04:31:12.830Z,17.39
2016-08-06T04:32:13.557Z,17.36
2016-08-06T04:33:12.871Z,17.42
2016-08-06T04:34:12.894Z,17.49
2016-08-06T04:35:12.923Z,17.48
2016-08-06T04:36:12.949Z,17.51
2016-08-06T04:37:12.970Z,17.48
2016-08-06T04:38:13.707Z,17.52
2016-08-06T04:39:13.730Z,17.42
2016-08-06T04:40:13.040Z,17.46
2016-08-06T04:41:13.066Z,17.49
2016-08-06T04:42:13.092Z,17.48
2016-08-06T04:43:13.823Z,17.51
2016-08-06T04:44:13.152Z,17.39
2016-08-06T04:45:13.871Z,17.38
2016-08-06T04:47:13.920Z,17.34
2016-08-06T04:48:13.238Z,17.34
2016-08-06T04:49:13.256Z,17.39
2016-08-06T04:50:13.282Z,17.42
2016-08-06T04:51:13.302Z,17.41
2016-08-06T04:52:13.334Z,17.44
2016-08-06T04:53:13.355Z,17.54
2016-08-06T04:54:13.379Z,17.48
2016-08-06T04:55:13.401Z,17.51
2016-08-06T04:56:13.427Z,17.56
2016-08-06T04:57:14.158Z,17.57
2016-08-06T04:58:13.482Z,17.52
2016-08-06T04:59:14.206Z,17.57
2016-08-06T05:00:13.525Z,17.67
2016-08-06T05:02:13.571Z,17.56
2016-08-06T05:03:13.593Z,17.63
2016-08-06T05:04:14.330Z,17.67
2016-08-06T05:05:13.639Z,17.74
2016-08-06T05:06:13.665Z,17.72
2016-08-06T05:07:13.712Z,17.63
2016-08-06T05:08:13.721Z,17.68
2016-08-06T05:09:13.737Z,17.7
2016-08-06T05:10:13.766Z,17.65
2016-08-06T05:11:13.785Z,17.49
2016-08-06T05:12:13.809Z,17.7
2016-08-06T05:13:14.544Z,17.7
2016-08-06T05:14:14.576Z,17.78
2016-08-06T05:15:13.890Z,17.68
2016-08-06T05:16:13.910Z,17.67
2016-08-06T05:17:13.932Z,17.7
2016-08-06T05:18:13.960Z,17.7
2016-08-06T05:19:13.977Z,17.74
2016-08-06T05:20:14.005Z,17.72
2016-08-06T05:21:14.030Z,17.76
2016-08-06T05:22:14.793Z,17.83
2016-08-06T05:23:14.085Z,17.85
2016-08-06T05:24:14.110Z,17.89
2016-08-06T05:25:14.128Z,17.9
2016-08-06T05:26:14.152Z,17.9
2016-08-06T05:27:14.175Z,17.95
2016-08-06T05:28:14.199Z,17.95
2016-08-06T05:29:14.932Z,18
2016-08-06T05:30:14.249Z,18.01
2016-08-06T05:31:14.279Z,18.07
2016-08-06T05:32:14.315Z,18.07
2016-08-06T05:33:14.320Z,18.03
2016-08-06T05:34:14.347Z,18.03
2016-08-06T05:35:14.375Z,18.1
2016-08-06T05:36:14.394Z,18.11
2016-08-06T05:37:14.427Z,18.04
2016-08-06T05:38:14.448Z,18.07
2016-08-06T05:39:14.471Z,18.07
2016-08-06T05:40:14.491Z,18.05
2016-08-06T05:41:15.230Z,18.13
2016-08-06T05:42:14.541Z,18.16
2016-08-06T05:43:15.283Z,18.2
2016-08-06T05:44:14.593Z,18.19
2016-08-06T05:45:14.629Z,18.29
2016-08-06T05:46:14.642Z,18.28
2016-08-06T05:47:14.665Z,18.29
2016-08-06T05:48:15.413Z,18.37
2016-08-06T05:49:14.714Z,18.4
2016-08-06T05:50:14.738Z,18.44
2016-08-06T05:51:14.763Z,18.38
2016-08-06T05:52:14.788Z,18.38
2016-08-06T05:53:14.815Z,18.35
2016-08-06T05:54:14.861Z,18.43
2016-08-06T05:55:15.572Z,18.4
2016-08-06T05:56:14.891Z,18.53
2016-08-06T05:57:14.909Z,18.49
2016-08-06T05:58:14.937Z,18.49
2016-08-06T05:59:14.962Z,18.44
2016-08-06T06:00:14.988Z,18.47
2016-08-06T06:01:15.019Z,18.43
2016-08-06T06:02:15.037Z,18.52
2016-08-06T06:03:15.058Z,18.49
2016-08-06T06:04:15.085Z,18.58
2016-08-06T06:05:15.108Z,18.63
2016-08-06T06:06:15.136Z,18.65
2016-08-06T06:07:15.156Z,18.65
2016-08-06T06:08:15.184Z,18.68
2016-08-06T06:09:15.222Z,18.65
2016-08-06T06:10:15.235Z,18.74
2016-08-06T06:11:15.976Z,18.73
2016-08-06T06:12:15.286Z,18.81
2016-08-06T06:13:15.306Z,18.75
2016-08-06T06:14:15.335Z,18.81
2016-08-06T06:15:15.358Z,18.84
2016-08-06T06:16:15.391Z,18.8
2016-08-06T06:17:15.409Z,18.77
2016-08-06T06:18:15.450Z,18.95
2016-08-06T06:19:15.461Z,18.93
2016-08-06T06:20:15.484Z,18.88
2016-08-06T06:21:15.507Z,18.96
2016-08-06T06:22:15.534Z,18.93
2016-08-06T06:23:16.267Z,19.02
2016-08-06T06:24:15.583Z,19.14
2016-08-06T06:25:15.620Z,19.02
2016-08-06T06:26:15.636Z,19.11
2016-08-06T06:27:15.679Z,19.15
2016-08-06T06:28:15.686Z,19.22
2016-08-06T06:29:16.425Z,19.18
2016-08-06T06:30:15.734Z,19.16
2016-08-06T06:31:15.760Z,19.26
2016-08-06T06:32:15.787Z,19.19
2016-08-06T06:33:15.812Z,19.26
2016-08-06T06:34:15.838Z,19.36
2016-08-06T06:35:15.866Z,19.41
2016-08-06T06:36:15.887Z,19.44
2016-08-06T06:37:15.915Z,19.39
2016-08-06T06:38:15.938Z,19.44
2016-08-06T06:39:15.972Z,19.41
2016-08-06T06:40:16.001Z,19.49
2016-08-06T06:41:16.014Z,19.56
2016-08-06T06:42:16.040Z,19.64
2016-08-06T06:43:16.069Z,19.69
2016-08-06T06:44:16.801Z,19.73
2016-08-06T06:45:16.115Z,19.82
2016-08-06T06:46:16.851Z,19.76
2016-08-06T06:47:16.169Z,19.69
2016-08-06T06:48:16.220Z,19.88
2016-08-06T06:49:16.223Z,19.89
2016-08-06T06:50:16.244Z,19.89
2016-08-06T06:51:16.271Z,19.86
2016-08-06T06:52:16.305Z,20.03
2016-08-06T06:53:16.322Z,20.1
2016-08-06T06:54:16.346Z,20.03
2016-08-06T06:55:16.373Z,20.09
2016-08-06T06:56:16.398Z,20.14
2016-08-06T06:57:16.443Z,20.16
2016-08-06T06:58:17.162Z,20.24
2016-08-06T06:59:16.477Z,20.25
2016-08-06T07:00:16.521Z,20.22
2016-08-06T07:01:16.532Z,20.22
2016-08-06T07:02:16.555Z,20.22
2016-08-06T07:03:16.588Z,20.37
2016-08-06T07:04:16.618Z,20.34
2016-08-06T07:05:17.343Z,20.21
2016-08-06T07:06:16.671Z,20.19
2016-08-06T07:07:16.683Z,20.26
2016-08-06T07:08:16.709Z,20.22
2016-08-06T07:09:16.738Z,20.32
2016-08-06T07:10:16.771Z,20.28
2016-08-06T07:11:16.792Z,20.25
2016-08-06T07:12:16.821Z,20.31
2016-08-06T07:13:17.555Z,20.26
2016-08-06T07:14:16.890Z,20.26
2016-08-06T07:15:17.609Z,20.36
2016-08-06T07:16:16.927Z,20.32
2016-08-06T07:17:16.968Z,20.47
2016-08-06T07:18:16.973Z,20.4
2016-08-06T07:19:17.008Z,20.43
2016-08-06T07:20:17.030Z,20.4
2016-08-06T07:21:17.767Z,20.41
2016-08-06T07:22:17.106Z,20.43
2016-08-06T07:23:17.113Z,20.55
2016-08-06T07:24:17.841Z,20.56
2016-08-06T07:25:17.158Z,20.55
2016-08-06T07:26:17.912Z,20.58
2016-08-06T07:27:18.126Z,20.69
2016-08-06T07:28:17.240Z,20.72
2016-08-06T07:29:17.268Z,20.77
2016-08-06T07:30:17.289Z,20.77
2016-08-06T07:31:18.029Z,20.74
2016-08-06T07:32:17.347Z,20.84
2016-08-06T07:33:17.377Z,20.85
2016-08-06T07:34:18.104Z,20.97
2016-08-06T07:35:17.424Z,20.9
2016-08-06T07:36:17.458Z,20.92
2016-08-06T07:37:17.477Z,21
2016-08-06T07:38:17.539Z,21.02
2016-08-06T07:39:17.531Z,21.03
2016-08-06T07:40:18.279Z,21.03
2016-08-06T07:41:18.290Z,21
2016-08-06T07:42:17.609Z,21.05
2016-08-06T07:43:18.346Z,21.14
2016-08-06T07:44:17.671Z,21.12
2016-08-06T07:45:18.399Z,21.18
2016-08-06T07:46:17.716Z,21.22
2016-08-06T07:47:17.744Z,21.3
2016-08-06T07:48:17.770Z,21.37
2016-08-06T07:49:17.795Z,21.25
2016-08-06T07:50:17.824Z,21.37
2016-08-06T07:51:17.848Z,21.35
2016-08-06T07:52:17.890Z,21.39
2016-08-06T07:53:17.905Z,21.29
2016-08-06T07:54:17.929Z,21.33
2016-08-06T07:55:18.669Z,21.39
2016-08-06T07:56:18.695Z,21.37
2016-08-06T07:57:18.009Z,21.54
2016-08-06T07:58:18.045Z,21.61
2016-08-06T07:59:18.066Z,21.79
2016-08-06T08:00:18.108Z,21.8
2016-08-06T08:01:18.178Z,22.07
2016-08-06T08:02:18.159Z,22.26
2016-08-06T08:03:18.223Z,22.53
2016-08-06T08:04:18.908Z,22.6
2016-08-06T08:05:18.231Z,22.73
2016-08-06T08:06:18.261Z,22.75
2016-08-06T08:07:18.287Z,22.6
2016-08-06T08:08:18.329Z,22.57
2016-08-06T08:09:18.343Z,22.5
2016-08-06T08:10:19.075Z,22.41
2016-08-06T08:11:18.399Z,22.54
2016-08-06T08:12:18.421Z,22.38
2016-08-06T08:13:18.447Z,22.43
2016-08-06T08:14:18.473Z,22.35
2016-08-06T08:15:18.502Z,22.25
2016-08-06T08:16:18.540Z,22.23
2016-08-06T08:17:18.569Z,22.11
2016-08-06T08:18:18.584Z,22.1
2016-08-06T08:19:18.609Z,22
2016-08-06T08:20:18.638Z,22.08
2016-08-06T08:21:18.672Z,22.15
2016-08-06T08:22:18.693Z,22.2
2016-08-06T08:23:19.427Z,22.25
2016-08-06T08:24:18.757Z,22.36
2016-08-06T08:25:18.786Z,22.23
2016-08-06T08:26:20.234Z,22.38
2016-08-06T08:27:18.832Z,22.39
2016-08-06T08:28:18.855Z,22.54
2016-08-06T08:29:18.888Z,22.48
2016-08-06T08:30:18.918Z,22.62
2016-08-06T08:31:18.942Z,22.65
2016-08-06T08:33:19.000Z,22.62
2016-08-06T08:34:19.735Z,22.59
2016-08-06T08:35:19.054Z,22.65
2016-08-06T08:36:19.083Z,22.72
2016-08-06T08:37:19.819Z,22.66
2016-08-06T08:38:19.135Z,22.63
2016-08-06T08:39:19.163Z,22.69
2016-08-06T08:40:19.914Z,22.65
2016-08-06T08:41:19.927Z,22.62
2016-08-06T08:42:19.247Z,22.65
2016-08-06T08:43:19.271Z,22.66
2016-08-06T08:44:19.299Z,22.81
2016-08-06T08:45:19.330Z,22.78
2016-08-06T08:46:19.359Z,22.88
2016-08-06T08:48:19.418Z,22.75
2016-08-06T08:49:19.440Z,22.8
2016-08-06T08:50:19.491Z,22.84
2016-08-06T08:51:19.495Z,22.83
2016-08-06T08:52:19.536Z,22.84
2016-08-06T08:53:20.260Z,22.87
2016-08-06T08:54:19.598Z,22.88
2016-08-06T08:55:19.609Z,22.84
2016-08-06T08:56:19.638Z,22.83
2016-08-06T08:57:19.670Z,22.78
2016-08-06T08:58:19.712Z,22.87
2016-08-06T08:59:20.431Z,22.87
2016-08-06T09:00:19.747Z,22.84
2016-08-06T09:01:19.775Z,22.93
2016-08-06T09:03:20.551Z,22.96
2016-08-06T09:04:19.863Z,22.96
2016-08-06T09:05:20.595Z,22.98
2016-08-06T09:06:19.925Z,22.83
2016-08-06T09:07:19.943Z,22.9
2016-08-06T09:08:20.681Z,22.88
2016-08-06T09:09:20.050Z,22.9
2016-08-06T09:10:20.734Z,22.98
2016-08-06T09:11:20.052Z,22.91
2016-08-06T09:12:20.081Z,22.96
2016-08-06T09:13:20.156Z,22.99
2016-08-06T09:14:20.154Z,22.99
2016-08-06T09:15:20.876Z,22.88
2016-08-06T09:16:20.196Z,22.84
2016-08-06T09:18:20.252Z,22.84
2016-08-06T09:19:20.283Z,22.85
2016-08-06T09:20:20.321Z,22.9
2016-08-06T09:21:20.347Z,22.84
2016-08-06T09:22:20.362Z,22.88
2016-08-06T09:23:20.397Z,22.85
2016-08-06T09:24:20.420Z,22.94
2016-08-06T09:25:20.453Z,22.87
2016-08-06T09:26:20.475Z,22.83
2016-08-06T09:27:21.213Z,22.8
2016-08-06T09:28:20.552Z,22.85
2016-08-06T09:29:20.564Z,22.76
2016-08-06T09:30:20.588Z,22.83
2016-08-06T09:31:20.615Z,22.83
2016-08-06T09:32:20.648Z,22.8
2016-08-06T09:33:20.678Z,22.65
2016-08-06T09:34:20.698Z,22.68
2016-08-06T09:35:21.438Z,22.78
2016-08-06T09:36:20.770Z,22.81
2016-08-06T09:37:20.786Z,22.84
2016-08-06T09:38:21.524Z,22.81
2016-08-06T09:39:20.839Z,22.75
2016-08-06T09:40:20.876Z,22.81
2016-08-06T09:41:20.894Z,22.8
2016-08-06T09:42:20.921Z,22.87
2016-08-06T09:43:20.954Z,22.98
2016-08-06T09:44:21.708Z,23.02
2016-08-06T09:45:21.717Z,23.05
2016-08-06T09:46:21.034Z,23.08
2016-08-06T09:48:21.088Z,23.21
2016-08-06T09:49:21.118Z,23.28
2016-08-06T09:50:21.145Z,23.27
2016-08-06T09:51:21.181Z,23.34
2016-08-06T09:52:21.926Z,23.36
2016-08-06T09:53:21.237Z,23.32
2016-08-06T09:54:21.966Z,23.37
2016-08-06T09:55:21.286Z,23.48
2016-08-06T09:56:21.321Z,23.55
2016-08-06T09:57:21.344Z,23.63
2016-08-06T09:58:21.368Z,23.65
2016-08-06T09:59:21.398Z,23.73
2016-08-06T10:00:21.433Z,23.8
2016-08-06T10:01:21.478Z,23.83
2016-08-06T10:02:21.482Z,23.95
2016-08-06T10:03:21.513Z,23.91
2016-08-06T10:04:21.538Z,23.96
2016-08-06T10:05:21.575Z,23.95
2016-08-06T10:06:21.596Z,24.01
2016-08-06T10:07:21.648Z,24.08
2016-08-06T10:08:22.370Z,23.98
2016-08-06T10:09:21.682Z,24.1
2016-08-06T10:10:21.722Z,24.14
2016-08-06T10:11:21.754Z,24.21
2016-08-06T10:12:21.770Z,24.17
2016-08-06T10:13:21.799Z,24.2
2016-08-06T10:14:22.551Z,24.17
2016-08-06T10:15:21.855Z,24.17
2016-08-06T10:16:21.884Z,24.2
2016-08-06T10:17:21.919Z,24.14
2016-08-06T10:18:21.961Z,24.33
2016-08-06T10:19:22.682Z,24.26
2016-08-06T10:20:22.708Z,24.4
2016-08-06T10:21:22.036Z,24.45
2016-08-06T10:22:22.059Z,24.6
2016-08-06T10:23:22.089Z,24.57
2016-08-06T10:24:22.828Z,24.66
2016-08-06T10:25:22.164Z,24.65
2016-08-06T10:26:22.178Z,24.7
2016-08-06T10:27:22.916Z,24.84
2016-08-06T10:28:22.232Z,24.86
2016-08-06T10:29:22.266Z,24.91
2016-08-06T10:30:22.296Z,24.98
2016-08-06T10:31:22.323Z,25.01
2016-08-06T10:32:22.350Z,25.11
2016-08-06T10:33:23.102Z,25.18
2016-08-06T10:34:22.411Z,25.25
2016-08-06T10:35:23.866Z,25.26
2016-08-06T10:36:22.464Z,25.14
2016-08-06T10:37:23.207Z,25.08
2016-08-06T10:38:22.529Z,25.17
2016-08-06T10:39:22.560Z,25.14
2016-08-06T10:40:22.598Z,25.18
2016-08-06T10:41:22.623Z,25.18
2016-08-06T10:42:22.646Z,25.11
2016-08-06T10:43:22.681Z,25.22
2016-08-06T10:44:22.711Z,25.21
2016-08-06T10:45:22.735Z,25.23
2016-08-06T10:46:22.766Z,25.21
2016-08-06T10:47:22.794Z,25.32
2016-08-06T10:48:23.553Z,25.26
2016-08-06T10:49:22.876Z,25.16
2016-08-06T10:50:22.884Z,25.13
2016-08-06T10:51:22.916Z,25.11
2016-08-06T10:52:22.943Z,24.99
2016-08-06T10:53:22.973Z,24.95
2016-08-06T10:54:23.006Z,24.86
2016-08-06T10:55:23.740Z,24.76
2016-08-06T10:56:23.781Z,24.76
2016-08-06T10:57:23.812Z,24.65
2016-08-06T10:58:23.122Z,24.5
2016-08-06T10:59:23.875Z,24.47
2016-08-06T11:00:23.207Z,24.32
2016-08-06T11:01:23.918Z,24.26
2016-08-06T11:02:23.235Z,24.18
2016-08-06T11:03:23.264Z,24.17
2016-08-06T11:04:23.304Z,24.18
2016-08-06T11:05:24.035Z,24.16
2016-08-06T11:06:23.354Z,24.1
2016-08-06T11:07:23.380Z,24.05
2016-08-06T11:08:24.119Z,24.11
2016-08-06T11:09:24.149Z,24.02
2016-08-06T11:10:23.472Z,24.13
2016-08-06T11:11:23.519Z,24.05
2016-08-06T11:12:23.534Z,24.03
2016-08-06T11:13:23.556Z,24.05
2016-08-06T11:14:25.639Z,23.96
2016-08-06T11:15:23.630Z,23.98
2016-08-06T11:16:23.646Z,23.92
2016-08-06T11:17:23.673Z,23.93
2016-08-06T11:18:24.415Z,23.95
2016-08-06T11:19:23.728Z,23.86
2016-08-06T11:20:23.759Z,23.87
2016-08-06T11:21:23.788Z,23.86
2016-08-06T11:22:23.852Z,23.78
2016-08-06T11:23:23.847Z,23.78
2016-08-06T11:24:24.585Z,23.59
2016-08-06T11:25:24.613Z,23.63
2016-08-06T11:26:23.937Z,23.55
2016-08-06T11:27:23.968Z,23.62
2016-08-06T11:28:24.052Z,23.63
2016-08-06T11:29:24.021Z,23.59
2016-08-06T11:30:24.773Z,23.54
2016-08-06T11:31:25.225Z,23.59
2016-08-06T11:32:24.105Z,23.5
2016-08-06T11:33:24.131Z,23.55
2016-08-06T11:34:25.315Z,23.54
2016-08-06T11:35:24.188Z,23.58
2016-08-06T11:36:24.225Z,23.56
2016-08-06T11:37:24.249Z,23.58
2016-08-06T11:38:24.276Z,23.59
2016-08-06T11:39:24.302Z,23.54
2016-08-06T11:40:24.352Z,23.56
2016-08-06T11:41:24.357Z,23.51
2016-08-06T11:42:24.814Z,23.56
2016-08-06T11:43:24.420Z,23.59
2016-08-06T11:44:24.446Z,23.62
2016-08-06T11:45:24.528Z,23.59
2016-08-06T11:46:24.499Z,23.58
2016-08-06T11:47:24.557Z,23.55
2016-08-06T11:48:25.341Z,23.58
2016-08-06T11:49:25.305Z,23.56
2016-08-06T11:50:25.322Z,23.56
2016-08-06T11:51:24.644Z,23.58
2016-08-06T11:52:24.790Z,23.51
2016-08-06T11:53:24.714Z,23.5
2016-08-06T11:54:25.440Z,23.41
2016-08-06T11:55:24.777Z,23.56
2016-08-06T11:56:24.800Z,23.59
2016-08-06T11:57:24.878Z,23.55
2016-08-06T11:58:24.891Z,23.61
2016-08-06T11:59:24.869Z,23.62
2016-08-06T12:00:25.616Z,23.65
2016-08-06T12:01:24.929Z,23.71
2016-08-06T12:02:24.970Z,23.81
2016-08-06T12:03:25.745Z,23.73
2016-08-06T12:04:25.721Z,23.78
2016-08-06T12:05:25.041Z,23.91
2016-08-06T12:06:25.078Z,23.88
2016-08-06T12:07:25.104Z,23.93
2016-08-06T12:08:25.835Z,23.95
2016-08-06T12:09:25.867Z,23.92
2016-08-06T12:10:25.196Z,23.95
2016-08-06T12:11:25.213Z,23.88
2016-08-06T12:12:25.244Z,23.98
2016-08-06T12:13:25.269Z,23.96
2016-08-06T12:14:25.297Z,23.92
2016-08-06T12:15:25.330Z,24.05
2016-08-06T12:16:25.365Z,23.84
2016-08-06T12:17:25.383Z,24.01
2016-08-06T12:18:25.412Z,23.93
2016-08-06T12:19:25.444Z,23.98
2016-08-06T12:20:25.470Z,23.96
2016-08-06T12:21:25.498Z,23.83
2016-08-06T12:22:25.530Z,23.91
2016-08-06T12:23:25.559Z,23.86
2016-08-06T12:24:25.582Z,23.86
2016-08-06T12:25:25.615Z,23.86
2016-08-06T12:26:25.646Z,23.86
2016-08-06T12:27:25.711Z,23.83
2016-08-06T12:28:26.410Z,23.8
2016-08-06T12:29:27.153Z,23.76
2016-08-06T12:30:25.759Z,23.76
2016-08-06T12:31:25.789Z,23.78
2016-08-06T12:32:27.336Z,23.76
2016-08-06T12:33:27.700Z,23.76
2016-08-06T12:34:26.588Z,23.73
2016-08-06T12:35:27.881Z,23.81
2016-08-06T12:36:25.950Z,23.77
2016-08-06T12:37:25.971Z,23.69
2016-08-06T12:38:26.698Z,23.74
2016-08-06T12:39:26.017Z,23.68
2016-08-06T12:40:26.292Z,23.62
2016-08-06T12:41:26.088Z,23.62
2016-08-06T12:42:26.103Z,23.66
2016-08-06T12:43:26.133Z,23.65
2016-08-06T12:44:26.170Z,23.62
2016-08-06T12:45:26.913Z,23.59
2016-08-06T12:46:26.926Z,23.58
2016-08-06T12:47:26.245Z,23.56
2016-08-06T12:48:26.276Z,23.61
2016-08-06T12:49:26.302Z,23.61
2016-08-06T12:50:26.470Z,23.62
2016-08-06T12:51:26.380Z,23.62
2016-08-06T12:52:27.247Z,23.65
2016-08-06T12:53:27.265Z,23.63
2016-08-06T12:54:26.454Z,23.59
2016-08-06T12:55:27.320Z,23.74
2016-08-06T12:56:26.531Z,23.68
2016-08-06T12:57:26.531Z,23.78
2016-08-06T12:58:27.301Z,23.76
2016-08-06T12:59:26.595Z,23.83
2016-08-06T13:00:26.619Z,23.84
2016-08-06T13:01:26.675Z,23.93
2016-08-06T13:02:26.680Z,23.87
2016-08-06T13:03:26.779Z,23.86